AirNav   Duncan Aviation - Near you to keep you flying
 
 1052 users online  

4LL7 Willadae Farms Airport
Sycamore, Illinois, USA

GOING TO SYCAMORE?


FAA INFORMATION EFFECTIVE 01 DECEMBER 2022

Location

FAA Identifier: 4LL7
Lat/Long: 42-00-00.1010N 088-40-00.3130W
42-00.001683N 088-40.005217W
42.0000281,-88.6667536
(estimated)
Elevation: 850 ft. / 259 m (estimated)
Variation: 00W (1985)
From city: 4 miles N of SYCAMORE, IL
Time zone: UTC -6 (UTC -5 during Daylight Saving Time)
Zip code: 60178

Airport Operations

Airport use: Private use. Permission required prior to landing
Activation date: 04/1967
Control tower: no
ARTCC: CHICAGO CENTER
FSS: KANKAKEE FLIGHT SERVICE STATION
Attendance: UNATNDD
Wind indicator: no
Segmented circle: no

Airport Communications

WX AWOS-3 at DKB (4 nm SW): 119.075 (815-748-2350)
WX ASOS at ARR (16 nm SE): PHONE 630-466-5622
WX ASOS at DPA (20 nm E): PHONE 630-587-3668
WX AWOS-3 at RPJ (20 nm W): 125.2 (815-562-2955)

Nearby radio navigation aids

VOR radial/distance  VOR name  Freq  Var
DPAr293/15.6DUPAGE VOR/DME108.4002E
JOTr328/31.4JOLIET VOR/DME112.3002E
OBKr249/34.5NORTHBROOK VOR/DME113.0002W
PLLr084/38.3POLO VOR/DME111.2003E
JVLr147/38.7JANESVILLE VOR/DME114.3003E

Airport Services

Airframe service: NONE
Powerplant service: NONE

Runway Information

Runway E/W

Dimensions: 2800 x 100 ft. / 853 x 30 m
Surface: turf
RUNWAY E  RUNWAY W
Traffic pattern: leftleft

Airport Ownership and Management from official FAA records

Ownership: Privately-owned
Owner: IVA DEUTSCH
28934 LUKENS RD
SYCAMORE, IL 60178
Phone 815-895-9430
Manager: WILLIAM DEUTSCH
28934 LUKENS RD
SYCAMORE, IL 60178
Phone 815-895-9430

Additional Remarks

FARM BLDGS TO NORTH.
FOR CD CTC CHICAGO APCH AT 847-289-0926.

Instrument Procedures

There are no published instrument procedures at 4LL7.

Some nearby airports with instrument procedures:

KDKB - De Kalb Taylor Municipal Airport (4 nm SW)
KARR - Aurora Municipal Airport (16 nm SE)
KDPA - DuPage Airport (20 nm E)
KRPJ - Rochelle Municipal Airport/Koritz Field (20 nm W)
3CK - Lake in the Hills Airport (20 nm NE)
 
Loc | Ops | Rwys | IFR | FBO | Links
Com | Nav | Svcs | Stats | Notes
Area around 4LL7 (Willadae Farms Airport)
 
Road maps at: MapQuest Bing Google
 
Aerial photo
No photo
 
Sectional chart

 
Airport distance calculator
Flying to Willadae Farms Airport? Find the distance to fly.

From to 4LL7

Sunrise and sunset
Times for 04-Dec-2022
 Local
(UTC-6)
 Zulu
(UTC)
Morning civil twilight06:3612:36
Sunrise07:0713:07
Sunset16:2322:23
Evening civil twilight16:5422:54

Current date and time
Zulu (UTC)  05-Dec-2022 00:34:36
Local (UTC-6)  04-Dec-2022 18:34:36
 
METAR
KDKB 
4nm S 
050015Z AUTO 20011KT 10SM CLR M01/M07 A3003 RMK AO2 T10101070
KARR 
16nm SE 
042352Z 19008KT 10SM CLR 00/M09 A3004 RMK AO2 SLP182 T00001089 10039 20000 56017
KRPJ 
19nm W 
050015Z AUTO 20009KT 10SM CLR M02/M08 A3004 RMK AO2 T10251077 TSNO
KDPA 
19nm E 
042352Z 20010KT 10SM CLR 01/M09 A3003 RMK AO2 SLP178 T00111089 10044 20006 56017
TAF
KDPA 
19nm E 
042055Z 0421/0518 23011G18KT P6SM FEW250 FM042200 22009KT P6SM FEW250 FM050200 21008KT P6SM SCT250 WS010/24035KT FM051200 20011G17KT P6SM BKN100
KRFD 
23nm NW 
042055Z 0421/0518 22009KT P6SM FEW250 FM050200 21008KT P6SM SCT250 WS010/24035KT FM051200 20011G17KT P6SM BKN100
NOTAMs
Click for the latest NOTAMs
NOTAMs are issued by the DoD/FAA and will open in a separate window not controlled by AirNav.

 

 
 

Would you like to see your business listed on this page?

 If your business provides an interesting product or service to pilots, flight crews, aircraft, or users of the Willadae Farms Airport, you should consider listing it here.  To start the listing process, click on the button below
 
Add a business
 

Other Pages about Willadae Farms Airport

Update a link
 
Copyright © AirNav, LLC. All rights reserved. Privacy Policy  Contact